createdAt,value
2022-11-15T00:00:22.083Z,91.73
2022-11-15T00:03:08.184Z,91.04
2022-11-15T00:05:55.184Z,90.81
2022-11-15T00:08:41.220Z,91.47
2022-11-15T00:11:28.204Z,91.84
2022-11-15T00:14:14.169Z,92.07
2022-11-15T00:17:00.487Z,92.00
2022-11-15T00:19:46.678Z,92.51
2022-11-15T00:22:34.455Z,92.13
2022-11-15T00:25:20.899Z,92.31
2022-11-15T00:28:07.261Z,91.84
2022-11-15T00:30:53.705Z,92.14
2022-11-15T00:33:40.043Z,91.92
2022-11-15T00:36:26.387Z,92.19
2022-11-15T00:39:12.769Z,92.28
2022-11-15T00:41:59.050Z,92.81
2022-11-15T00:44:45.397Z,93.08
2022-11-15T00:47:31.760Z,92.91
2022-11-15T00:50:18.615Z,92.05
2022-11-15T00:53:04.870Z,92.21
2022-11-15T00:55:51.787Z,92.65
2022-11-15T00:58:38.016Z,92.74
2022-11-15T01:01:24.278Z,93.10
2022-11-15T01:04:10.560Z,92.96
2022-11-15T01:06:56.937Z,93.18
2022-11-15T01:09:43.317Z,92.19
2022-11-15T01:12:29.565Z,92.23
2022-11-15T01:15:15.784Z,92.48
2022-11-15T01:18:02.124Z,92.58
2022-11-15T01:20:48.308Z,92.45
2022-11-15T01:23:35.141Z,92.47
2022-11-15T01:26:21.538Z,92.59
2022-11-15T01:29:08.047Z,93.03
2022-11-15T01:31:55.087Z,92.93
2022-11-15T01:34:41.265Z,92.84
2022-11-15T01:37:27.510Z,93.18
2022-11-15T01:40:14.079Z,93.80
2022-11-15T01:43:00.208Z,94.16
2022-11-15T01:45:52.206Z,94.50
2022-11-15T01:48:38.584Z,93.93
2022-11-15T01:51:29.506Z,93.60
2022-11-15T01:54:19.820Z,93.80
2022-11-15T01:57:11.367Z,94.26
2022-11-15T01:59:58.318Z,94.25
2022-11-15T02:02:45.067Z,94.35
2022-11-15T02:05:32.641Z,94.70
2022-11-15T02:08:21.011Z,94.19
2022-11-15T02:11:10.982Z,94.11
2022-11-15T02:14:00.519Z,93.80
2022-11-15T02:17:15.691Z,93.85
2022-11-15T02:20:20.029Z,94.16
2022-11-15T02:23:16.949Z,95.24
2022-11-15T02:26:08.826Z,95.53
2022-11-15T02:29:25.246Z,95.54
2022-11-15T02:32:25.909Z,94.56
2022-11-15T02:35:38.535Z,94.42
2022-11-15T02:39:09.770Z,94.69
2022-11-15T02:42:03.271Z,95.05
2022-11-15T02:44:51.310Z,95.83
2022-11-15T02:47:46.680Z,96.10
2022-11-15T02:50:35.270Z,96.24
2022-11-15T02:53:26.553Z,96.26
2022-11-15T02:56:13.714Z,96.23
2022-11-15T02:59:13.545Z,96.10
2022-11-15T03:02:29.715Z,96.09
2022-11-15T03:05:33.412Z,95.99
2022-11-15T03:08:31.927Z,95.73
2022-11-15T03:11:21.461Z,95.53
2022-11-15T03:14:19.712Z,95.98
2022-11-15T03:17:27.471Z,96.82
2022-11-15T03:20:17.911Z,96.66
2022-11-15T03:23:09.120Z,96.96
2022-11-15T03:25:57.411Z,97.07
2022-11-15T03:29:00.572Z,97.47
2022-11-15T03:31:57.966Z,97.92
2022-11-15T03:35:09.126Z,97.62
2022-11-15T03:38:19.878Z,97.60
2022-11-15T03:41:21.128Z,96.66
2022-11-15T03:44:32.809Z,96.79
2022-11-15T03:47:43.227Z,96.60
2022-11-15T03:50:30.562Z,97.04
2022-11-15T03:53:17.928Z,97.02
2022-11-15T03:56:04.849Z,97.19
2022-11-15T03:58:50.922Z,97.18
2022-11-15T04:01:37.272Z,97.14
2022-11-15T04:04:23.633Z,96.80
2022-11-15T04:07:10.202Z,96.78
2022-11-15T04:10:06.403Z,96.86
2022-11-15T04:12:53.183Z,96.24
2022-11-15T04:15:39.227Z,96.14
2022-11-15T04:18:26.082Z,96.34
2022-11-15T04:21:31.046Z,96.41
2022-11-15T04:24:17.933Z,96.66
2022-11-15T04:27:04.572Z,96.24
2022-11-15T04:29:50.783Z,96.13
2022-11-15T04:32:37.029Z,96.02
2022-11-15T04:35:23.358Z,96.18
2022-11-15T04:38:11.745Z,96.07
2022-11-15T04:40:57.951Z,96.12
2022-11-15T04:43:44.176Z,96.22
2022-11-15T04:46:30.236Z,96.76
2022-11-15T04:49:16.550Z,96.92
2022-11-15T04:52:03.057Z,97.07
2022-11-15T04:54:49.172Z,96.68
2022-11-15T04:57:36.008Z,96.76
2022-11-15T05:00:22.424Z,97.13
2022-11-15T05:03:29.505Z,97.28
2022-11-15T05:06:15.982Z,97.55
2022-11-15T05:09:02.446Z,97.70
2022-11-15T05:11:48.926Z,97.49
2022-11-15T05:14:35.209Z,97.30
2022-11-15T05:17:21.400Z,97.50
2022-11-15T05:20:08.251Z,96.86
2022-11-15T05:22:56.480Z,96.72
2022-11-15T05:25:43.099Z,96.97
2022-11-15T05:28:29.444Z,97.58
2022-11-15T05:31:17.494Z,97.91
2022-11-15T05:34:06.420Z,97.73
2022-11-15T05:36:53.326Z,97.93
2022-11-15T05:39:39.538Z,98.11
2022-11-15T05:42:27.845Z,98.36
2022-11-15T05:45:14.534Z,98.37
2022-11-15T05:48:06.632Z,98.50
2022-11-15T05:50:53.614Z,98.53
2022-11-15T05:53:40.039Z,98.92
2022-11-15T05:56:27.068Z,99.35
2022-11-15T05:59:14.136Z,98.89
2022-11-15T06:02:00.646Z,98.72
2022-11-15T06:04:47.300Z,98.61
2022-11-15T06:07:33.319Z,98.59
2022-11-15T06:10:19.693Z,98.12
2022-11-15T06:13:06.294Z,98.06
2022-11-15T06:15:56.002Z,98.11
2022-11-15T06:18:42.270Z,98.38
2022-11-15T06:21:31.183Z,98.27
2022-11-15T06:24:17.325Z,98.32
2022-11-15T06:27:03.557Z,98.42
2022-11-15T06:29:49.749Z,98.68
2022-11-15T06:32:36.008Z,98.59
2022-11-15T06:35:22.147Z,98.57
2022-11-15T06:38:11.683Z,98.79
2022-11-15T06:41:04.660Z,99.18
2022-11-15T06:43:51.223Z,99.48
2022-11-15T06:46:37.432Z,99.44
2022-11-15T06:49:23.638Z,98.83
2022-11-15T06:52:09.809Z,98.98
2022-11-15T06:54:56.521Z,99.23
2022-11-15T06:57:53.414Z,98.28
2022-11-15T07:00:39.957Z,98.38
2022-11-15T07:03:27.107Z,98.61
2022-11-15T07:06:13.490Z,99.21
2022-11-15T07:08:59.672Z,98.80
2022-11-15T07:11:45.894Z,98.45
2022-11-15T07:14:32.117Z,98.63
2022-11-15T07:17:18.577Z,98.85
2022-11-15T07:20:05.121Z,98.72
2022-11-15T07:22:51.623Z,98.75
2022-11-15T07:25:37.989Z,98.64
2022-11-15T07:28:24.232Z,98.75
2022-11-15T07:31:11.220Z,98.60
2022-11-15T07:33:57.544Z,98.45
2022-11-15T07:36:43.531Z,98.41
2022-11-15T07:39:29.644Z,98.37
2022-11-15T07:42:51.212Z,98.18
2022-11-15T07:45:43.725Z,98.12
2022-11-15T07:48:42.847Z,97.84
2022-11-15T07:51:30.280Z,97.91
2022-11-15T07:54:16.673Z,97.61
2022-11-15T07:57:07.321Z,97.30
2022-11-15T07:59:53.959Z,96.81
2022-11-15T08:02:40.957Z,96.56
2022-11-15T08:05:27.647Z,96.69
2022-11-15T08:08:14.233Z,95.77
2022-11-15T08:11:00.655Z,95.62
2022-11-15T08:13:47.019Z,94.94
2022-11-15T08:16:33.369Z,94.64
2022-11-15T08:19:19.428Z,94.31
2022-11-15T08:22:05.695Z,94.65
2022-11-15T08:24:51.947Z,94.94
2022-11-15T08:27:38.329Z,94.82
2022-11-15T08:30:25.578Z,94.52
2022-11-15T08:33:15.532Z,95.13
2022-11-15T08:36:02.681Z,95.18
2022-11-15T08:38:48.727Z,94.80
2022-11-15T08:41:37.817Z,94.49
2022-11-15T08:44:25.101Z,93.94
2022-11-15T08:47:14.665Z,94.25
2022-11-15T08:50:00.977Z,93.42
2022-11-15T08:52:49.212Z,92.91
2022-11-15T08:55:38.296Z,92.74
2022-11-15T08:58:24.676Z,93.41
2022-11-15T09:01:21.856Z,93.60
2022-11-15T09:04:08.441Z,93.03
2022-11-15T09:06:54.646Z,92.54
2022-11-15T09:09:41.914Z,91.90
2022-11-15T09:12:28.183Z,91.54
2022-11-15T09:15:14.411Z,91.58
2022-11-15T09:18:00.904Z,91.54
2022-11-15T09:20:47.551Z,91.62
2022-11-15T09:23:34.136Z,91.19
2022-11-15T09:26:20.718Z,90.06
2022-11-15T09:29:06.835Z,90.14
2022-11-15T09:31:56.275Z,89.08
2022-11-15T09:34:42.590Z,88.54
2022-11-15T09:37:28.875Z,88.57
2022-11-15T09:40:18.499Z,88.18
2022-11-15T09:43:51.919Z,88.51
2022-11-15T09:47:05.351Z,87.58
2022-11-15T09:50:21.246Z,87.32
2022-11-15T09:52:49.722Z,87.56
2022-11-15T09:55:22.365Z,87.56
2022-11-15T09:58:01.700Z,87.08
2022-11-15T10:00:50.191Z,87.02
2022-11-15T10:03:23.020Z,87.48
2022-11-15T10:05:55.194Z,87.13
2022-11-15T10:08:32.081Z,86.71
2022-11-15T10:14:05.974Z,87.06
2022-11-15T10:17:03.051Z,86.94
2022-11-15T10:19:42.346Z,86.42
2022-11-15T10:22:31.020Z,86.36
2022-11-15T10:25:21.769Z,85.63
2022-11-15T10:27:56.581Z,86.39
2022-11-15T10:30:30.905Z,87.51
2022-11-15T10:32:58.804Z,87.47
2022-11-15T10:35:28.022Z,87.16
2022-11-15T10:38:08.463Z,87.36
2022-11-15T10:40:37.722Z,87.98
2022-11-15T10:43:20.018Z,87.77
2022-11-15T10:45:48.707Z,87.13
2022-11-15T10:48:19.535Z,86.64
2022-11-15T10:50:49.362Z,86.63
2022-11-15T10:53:26.187Z,87.21
2022-11-15T10:56:06.332Z,86.93
2022-11-15T10:58:44.878Z,86.62
2022-11-15T11:01:20.199Z,86.64
2022-11-15T11:04:00.336Z,86.55
2022-11-15T11:06:28.837Z,86.17
2022-11-15T11:09:06.218Z,85.95
2022-11-15T11:12:01.104Z,85.99
2022-11-15T11:14:34.537Z,85.94
2022-11-15T11:17:33.124Z,85.56
2022-11-15T11:20:13.175Z,85.63
2022-11-15T11:23:21.676Z,85.81
2022-11-15T11:26:02.700Z,86.29
2022-11-15T11:28:54.358Z,86.17
2022-11-15T11:31:28.160Z,86.47
2022-11-15T11:34:49.225Z,86.39
2022-11-15T11:37:28.970Z,86.78
2022-11-15T11:40:25.463Z,86.91
2022-11-15T11:43:00.494Z,87.10
2022-11-15T11:45:54.303Z,86.39
2022-11-15T11:48:38.140Z,86.70
2022-11-15T11:51:43.192Z,87.38
2022-11-15T11:54:20.417Z,87.62
2022-11-15T11:56:49.568Z,87.56
2022-11-15T11:59:39.754Z,87.58
2022-11-15T12:02:29.553Z,87.11
2022-11-15T12:05:19.312Z,87.70
2022-11-15T12:07:51.652Z,87.37
2022-11-15T12:10:28.857Z,87.06
2022-11-15T12:13:20.654Z,86.05
2022-11-15T12:16:02.142Z,86.42
2022-11-15T12:18:32.788Z,86.80
2022-11-15T12:21:09.679Z,86.82
2022-11-15T12:23:55.824Z,86.95
2022-11-15T12:26:34.591Z,86.77
2022-11-15T12:29:10.663Z,86.77
2022-11-15T12:31:40.700Z,87.21
2022-11-15T12:34:25.977Z,87.23
2022-11-15T12:36:54.219Z,87.28
2022-11-15T12:39:42.021Z,87.10
2022-11-15T12:42:12.674Z,87.34
2022-11-15T12:44:40.187Z,87.77
2022-11-15T12:47:10.987Z,87.97
2022-11-15T12:49:38.550Z,87.75
2022-11-15T12:52:08.698Z,87.69
2022-11-15T12:54:42.319Z,87.66
2022-11-15T12:57:33.850Z,87.33
2022-11-15T13:00:25.283Z,87.48
2022-11-15T13:03:24.580Z,87.89
2022-11-15T13:05:57.498Z,88.00
2022-11-15T13:08:48.605Z,88.13
2022-11-15T13:11:45.739Z,87.60
2022-11-15T13:14:38.388Z,87.06
2022-11-15T13:17:20.825Z,87.53
2022-11-15T13:20:01.506Z,87.42
2022-11-15T13:23:14.488Z,87.63
2022-11-15T13:26:00.995Z,88.40
2022-11-15T13:28:31.585Z,88.00
2022-11-15T13:31:29.838Z,88.33
2022-11-15T13:34:36.562Z,88.41
2022-11-15T13:37:03.423Z,88.75
2022-11-15T13:39:33.746Z,89.31
2022-11-15T13:42:01.807Z,89.37
2022-11-15T13:44:32.846Z,89.83
2022-11-15T13:47:05.410Z,89.78
2022-11-15T13:49:34.669Z,90.12
2022-11-15T13:52:06.543Z,89.13
2022-11-15T13:55:04.594Z,88.36
2022-11-15T13:57:49.497Z,87.30
2022-11-15T14:00:44.716Z,87.25
2022-11-15T14:03:18.644Z,87.64
2022-11-15T14:06:13.091Z,88.29
2022-11-15T14:08:58.084Z,88.38
2022-11-15T14:11:26.209Z,88.90
2022-11-15T14:14:10.252Z,89.28
2022-11-15T14:16:46.343Z,89.72
2022-11-15T14:19:36.037Z,89.90
2022-11-15T14:22:16.826Z,89.40
2022-11-15T14:24:47.725Z,89.27
2022-11-15T14:27:21.557Z,89.51
2022-11-15T14:29:50.584Z,89.74
2022-11-15T14:32:22.040Z,89.47
2022-11-15T14:34:55.162Z,88.59
2022-11-15T14:37:35.565Z,88.87
2022-11-15T14:40:06.220Z,88.54
2022-11-15T14:42:34.090Z,88.01
2022-11-15T14:45:02.335Z,87.82
2022-11-15T14:47:29.993Z,88.28
2022-11-15T14:49:57.860Z,88.84
2022-11-15T14:52:37.321Z,89.56
2022-11-15T14:55:24.210Z,89.81
2022-11-15T14:57:53.407Z,89.96
2022-11-15T15:00:22.205Z,90.57
2022-11-15T15:02:55.085Z,90.91
2022-11-15T15:05:34.264Z,91.29
2022-11-15T15:08:02.454Z,91.45
2022-11-15T15:10:42.448Z,91.58
2022-11-15T15:13:25.091Z,91.85
2022-11-15T15:15:54.031Z,92.00
2022-11-15T15:18:21.972Z,92.52
2022-11-15T15:21:08.196Z,92.77
2022-11-15T15:23:36.776Z,92.88
2022-11-15T15:26:04.948Z,92.96
2022-11-15T15:28:34.857Z,93.12
2022-11-15T15:31:03.429Z,93.11
2022-11-15T15:33:31.025Z,93.19
2022-11-15T15:36:00.199Z,93.29
2022-11-15T15:38:27.979Z,93.48
2022-11-15T15:40:56.327Z,93.74
2022-11-15T15:43:23.915Z,93.87
2022-11-15T15:45:51.823Z,93.30
2022-11-15T15:48:19.571Z,93.19
2022-11-15T15:50:48.304Z,93.00
2022-11-15T15:53:15.992Z,93.15
2022-11-15T15:55:43.830Z,92.65
2022-11-15T15:58:11.423Z,91.98
2022-11-15T16:00:39.834Z,91.21
2022-11-15T16:03:07.506Z,91.53
2022-11-15T16:05:35.587Z,91.08
2022-11-15T16:08:03.588Z,90.97
2022-11-15T16:10:35.283Z,91.52
2022-11-15T16:13:03.030Z,91.30
2022-11-15T16:15:33.033Z,90.81
2022-11-15T16:18:02.572Z,91.31
2022-11-15T16:20:43.318Z,91.17
2022-11-15T16:23:16.081Z,91.31
2022-11-15T16:25:53.078Z,91.93
2022-11-15T16:28:22.609Z,92.25
2022-11-15T16:31:00.689Z,92.06
2022-11-15T16:33:28.489Z,92.46
2022-11-15T16:35:56.467Z,92.95
2022-11-15T16:38:24.112Z,93.79
2022-11-15T16:40:52.074Z,93.35
2022-11-15T16:43:19.777Z,92.88
2022-11-15T16:45:49.454Z,92.89
2022-11-15T16:48:29.857Z,92.98
2022-11-15T16:50:59.669Z,93.88
2022-11-15T16:53:28.229Z,94.29
2022-11-15T16:55:56.565Z,94.92
2022-11-15T16:58:25.073Z,95.21
2022-11-15T17:00:57.242Z,95.20
2022-11-15T17:03:25.313Z,94.92
2022-11-15T17:05:57.860Z,95.05
2022-11-15T17:08:28.632Z,95.39
2022-11-15T17:10:56.527Z,95.85
2022-11-15T17:13:24.238Z,96.29
2022-11-15T17:16:02.938Z,96.38
2022-11-15T17:18:30.758Z,96.61
2022-11-15T17:21:03.363Z,96.95
2022-11-15T17:23:30.989Z,96.16
2022-11-15T17:26:17.881Z,95.95
2022-11-15T17:28:56.699Z,96.33
2022-11-15T17:31:25.493Z,96.33
2022-11-15T17:33:53.371Z,96.48
2022-11-15T17:36:21.192Z,96.79
2022-11-15T17:38:56.585Z,96.79
2022-11-15T17:41:28.289Z,97.01
2022-11-15T17:44:00.131Z,97.38
2022-11-15T17:46:29.323Z,97.64
2022-11-15T17:48:58.044Z,97.59
2022-11-15T17:51:26.315Z,97.76
2022-11-15T17:53:55.337Z,97.70
2022-11-15T17:56:25.410Z,97.90
2022-11-15T17:58:58.856Z,97.99
2022-11-15T18:01:35.060Z,98.18
2022-11-15T18:04:05.570Z,98.19
2022-11-15T18:06:35.073Z,97.84
2022-11-15T18:09:03.917Z,98.09
2022-11-15T18:11:41.451Z,98.20
2022-11-15T18:14:13.776Z,97.69
2022-11-15T18:16:42.157Z,97.57
2022-11-15T18:19:13.362Z,97.79
2022-11-15T18:21:57.931Z,98.47
2022-11-15T18:24:34.933Z,98.78
2022-11-15T18:27:05.296Z,98.55
2022-11-15T18:29:34.615Z,98.00
2022-11-15T18:32:05.075Z,97.71
2022-11-15T18:34:34.131Z,97.69
2022-11-15T18:37:03.403Z,96.87
2022-11-15T18:39:31.217Z,97.49
2022-11-15T18:41:59.511Z,97.44
2022-11-15T18:44:30.130Z,96.94
2022-11-15T18:46:58.658Z,96.74
2022-11-15T18:49:26.464Z,96.84
2022-11-15T18:51:54.967Z,97.37
2022-11-15T18:54:25.598Z,97.56
2022-11-15T18:56:56.139Z,97.54
2022-11-15T18:59:23.811Z,97.08
2022-11-15T19:01:52.241Z,96.32
2022-11-15T19:04:20.874Z,96.16
2022-11-15T19:06:50.515Z,96.30
2022-11-15T19:09:19.686Z,96.08
2022-11-15T19:11:51.540Z,96.12
2022-11-15T19:14:23.904Z,96.26
2022-11-15T19:16:52.761Z,95.88
2022-11-15T19:19:23.794Z,95.75
2022-11-15T19:21:52.627Z,95.54
2022-11-15T19:24:21.039Z,95.85
2022-11-15T19:26:49.198Z,95.91
2022-11-15T19:29:18.213Z,96.24
2022-11-15T19:31:48.643Z,96.49
2022-11-15T19:34:17.886Z,96.39
2022-11-15T19:36:46.497Z,96.54
2022-11-15T19:39:17.894Z,96.55
2022-11-15T19:41:46.473Z,96.88
2022-11-15T19:44:15.122Z,96.23
2022-11-15T19:46:44.379Z,96.27
2022-11-15T19:49:12.304Z,95.93
2022-11-15T19:51:42.661Z,96.24
2022-11-15T19:54:11.082Z,96.48
2022-11-15T19:56:40.174Z,96.71
2022-11-15T19:59:08.133Z,97.06
2022-11-15T20:01:38.843Z,96.77
2022-11-15T20:04:08.076Z,96.34
2022-11-15T20:06:42.212Z,96.41
2022-11-15T20:09:13.734Z,96.48
2022-11-15T20:11:41.866Z,96.90
2022-11-15T20:14:11.649Z,96.81
2022-11-15T20:16:39.905Z,97.36
2022-11-15T20:19:08.696Z,97.68
2022-11-15T20:21:36.878Z,98.05
2022-11-15T20:24:05.355Z,98.25
2022-11-15T20:26:33.383Z,98.29
2022-11-15T20:29:02.990Z,98.15
2022-11-15T20:31:31.843Z,98.21
2022-11-15T20:33:59.690Z,97.55
2022-11-15T20:36:27.869Z,97.15
2022-11-15T20:38:59.498Z,96.93
2022-11-15T20:41:28.136Z,97.04
2022-11-15T20:43:55.980Z,97.00
2022-11-15T20:46:23.988Z,97.07
2022-11-15T20:48:51.520Z,96.72
2022-11-15T20:51:20.445Z,97.16
2022-11-15T20:53:48.453Z,97.12
2022-11-15T20:56:18.972Z,97.07
2022-11-15T20:58:48.251Z,97.04
2022-11-15T21:01:17.877Z,97.22
2022-11-15T21:03:45.737Z,97.35
2022-11-15T21:06:13.717Z,97.16
2022-11-15T21:09:00.278Z,97.28
2022-11-15T21:11:46.738Z,96.90
2022-11-15T21:14:14.301Z,96.35
2022-11-15T21:16:42.171Z,96.28
2022-11-15T21:19:10.185Z,95.88
2022-11-15T21:21:38.801Z,95.97
2022-11-15T21:24:08.107Z,96.46
2022-11-15T21:26:36.644Z,97.14
2022-11-15T21:29:04.875Z,97.14
2022-11-15T21:31:32.915Z,97.41
2022-11-15T21:34:03.936Z,97.50
2022-11-15T21:36:31.914Z,97.84
2022-11-15T21:38:59.574Z,98.06
2022-11-15T21:41:27.891Z,97.97
2022-11-15T21:44:03.432Z,97.80
2022-11-15T21:46:32.256Z,97.66
2022-11-15T21:49:00.027Z,97.34
2022-11-15T21:51:27.896Z,96.56
2022-11-15T21:53:56.357Z,96.56
2022-11-15T21:56:25.737Z,96.99
2022-11-15T21:58:54.896Z,97.25
2022-11-15T22:01:43.325Z,97.36
2022-11-15T22:04:11.165Z,97.29
2022-11-15T22:06:39.280Z,97.55
2022-11-15T22:09:07.739Z,97.79
2022-11-15T22:11:36.616Z,98.38
2022-11-15T22:14:04.647Z,98.22
2022-11-15T22:16:33.290Z,98.11
2022-11-15T22:19:01.233Z,97.78
2022-11-15T22:21:29.531Z,97.71
2022-11-15T22:23:57.612Z,97.63
2022-11-15T22:26:25.716Z,97.38
2022-11-15T22:28:53.481Z,97.55
2022-11-15T22:31:21.527Z,97.57
2022-11-15T22:33:49.404Z,97.58
2022-11-15T22:36:17.579Z,97.73
2022-11-15T22:38:45.405Z,97.71
2022-11-15T22:41:13.552Z,98.01
2022-11-15T22:43:41.290Z,97.75
2022-11-15T22:46:10.517Z,97.77
2022-11-15T22:48:39.851Z,98.27
2022-11-15T22:51:08.572Z,98.59
2022-11-15T22:53:36.576Z,98.61
2022-11-15T22:56:06.218Z,98.38
2022-11-15T22:58:34.515Z,98.20
2022-11-15T23:01:05.029Z,98.46
2022-11-15T23:03:34.216Z,98.17
2022-11-15T23:06:07.167Z,98.35
2022-11-15T23:08:35.572Z,98.29
2022-11-15T23:11:23.335Z,97.70
2022-11-15T23:13:52.238Z,97.39
2022-11-15T23:16:24.027Z,96.90
2022-11-15T23:18:54.627Z,96.97
2022-11-15T23:22:07.551Z,97.16
2022-11-15T23:24:35.410Z,96.36
2022-11-15T23:27:07.380Z,96.69
2022-11-15T23:29:56.438Z,96.89
2022-11-15T23:32:43.058Z,96.99
2022-11-15T23:35:10.975Z,97.00
2022-11-15T23:37:39.098Z,97.37
2022-11-15T23:40:07.515Z,97.13
2022-11-15T23:42:35.573Z,97.18
2022-11-15T23:45:03.498Z,97.06
2022-11-15T23:47:31.500Z,97.27
2022-11-15T23:49:59.236Z,96.75
2022-11-15T23:52:27.313Z,96.89
2022-11-15T23:54:55.050Z,97.40
2022-11-15T23:57:23.363Z,97.72
2022-11-15T23:59:51.221Z,97.70
